Time;durP1;ratioP1;P1;durP2;ratioP2;P2;SDS_P1;SDS_P2;PMS_P1;PMS_P2;Temp;Humidity;BMP_temperature;BMP_pressure;BME280_temperature;BME280_humidity;BME280_pressure;Samples;Min_cycle;Max_cycle;Signal;HPM_P1;HPM_P2
2022/03/12 00:00:35;;;;;;;;;;;;;;;;;;5014125;28;19928;-42
2022/03/12 00:03:00;;;;;;;;;;;;;;;;;;5016665;28;19929;-42
2022/03/12 00:05:29;;;;;;;;;;;;;;;;;;5013730;28;19978;-43
2022/03/12 00:07:54;;;;;;;;;;;;;;;;;;5014400;28;19967;-41
2022/03/12 00:10:21;;;;;;;;;;;;;;;;;;5017318;28;19962;-43
2022/03/12 00:12:46;;;;;;;;;;;;;;;;;;5015126;28;19928;-43
2022/03/12 00:15:12;;;;;;;;;;;;;;;;;;5015285;28;19929;-45
2022/03/12 00:17:39;;;;;;;;;;;;;;;;;;5012808;28;20338;-44
2022/03/12 00:20:12;;;;;;;;;;;;;;;;;;5014652;28;19990;-43
2022/03/12 00:22:37;;;;;;;;;;;;;;;;;;5021786;28;19921;-46
2022/03/12 00:25:11;;;;;;;;;;;;;;;;;;5016322;28;19943;-42
2022/03/12 00:27:39;;;;;;;;;;;;;;;;;;5013983;28;20408;-42
2022/03/12 00:30:04;;;;;;;;;;;;;;;;;;5013837;28;20016;-43
2022/03/12 00:32:30;;;;;;;;;;;;;;;;;;5011041;28;20444;-46
2022/03/12 00:34:55;;;;;;;;;;;;;;;;;;5011742;28;19925;-41
2022/03/12 00:37:21;;;;;;;;;;;;;;;;;;5013045;28;19976;-42
2022/03/12 00:39:47;;;;;;;;;;;;;;;;;;5012688;28;19922;-44
2022/03/12 00:42:13;;;;;;;;;;;;;;;;;;5014711;28;20005;-43
2022/03/12 00:44:38;;;;;;;;;;;;;;;;;;5011516;28;20049;-41
2022/03/12 00:47:03;;;;;;;;;;;;;;;;;;5008146;28;20894;-42
2022/03/12 00:49:28;;;;;;;;;;;;;;;;;;5014357;28;19960;-42
2022/03/12 00:51:54;;;;;;;;;;;;;;;;;;5009679;28;20019;-45
2022/03/12 00:54:19;;;;;;;;;;;;;;;;;;5011030;28;19936;-44
2022/03/12 00:56:44;;;;;;;;;;;;;;;;;;5009580;28;20593;-43
2022/03/12 00:59:09;;;;;;;;;;;;;;;;;;5011252;28;19922;-44
2022/03/12 01:01:34;;;;;;;;;;;;;;;;;;5010772;28;19922;-47
2022/03/12 01:03:59;;;;;;;;;;;;;;;;;;5028281;28;19921;-42
2022/03/12 01:06:24;;;;;;;;;;;;;;;;;;5013322;28;19921;-43
2022/03/12 01:08:50;;;;;;;;;;;;;;;;;;5011087;28;19928;-44
2022/03/12 01:11:15;;;;;;;;;;;;;;;;;;5015615;28;20008;-42
2022/03/12 01:13:40;;;;;;;;;;;;;;;;;;5009170;28;19932;-42
2022/03/12 01:16:05;;;;;;;;;;;;;;;;;;5015092;28;20051;-43
2022/03/12 01:18:30;;;;;;;;;;;;;;;;;;5015302;28;19917;-41
2022/03/12 01:20:56;;;;;;;;;;;;;;;;;;5010087;28;19948;-43
2022/03/12 01:23:21;;;;;;;;;;;;;;;;;;5013136;28;19920;-43
2022/03/12 01:25:46;;;;;;;;;;;;;;;;;;5012683;28;20428;-42
2022/03/12 01:28:12;;;;;;;;;;;;;;;;;;5013315;28;19968;-42
2022/03/12 01:30:38;;;;;;;;;;;;;;;;;;5025917;28;19921;-43
2022/03/12 01:33:03;;;;;;;;;;;;;;;;;;5012452;28;19967;-42
2022/03/12 01:35:28;;;;;;;;;;;;;;;;;;5013490;28;19928;-42
2022/03/12 01:37:53;;;;;;;;;;;;;;;;;;5014423;28;19940;-41
2022/03/12 01:40:19;;;;;;;;;;;;;;;;;;5009054;28;19922;-43
2022/03/12 01:42:44;;;;;;;;;;;;;;;;;;5012313;28;20003;-41
2022/03/12 01:45:10;;;;;;;;;;;;;;;;;;5007800;28;19933;-42
2022/03/12 01:47:35;;;;;;;;;;;;;;;;;;5008075;28;20413;-43
2022/03/12 01:50:01;;;;;;;;;;;;;;;;;;5011868;28;20494;-41
2022/03/12 01:52:26;;;;;;;;;;;;;;;;;;5012303;28;19925;-41
2022/03/12 01:54:51;;;;;;;;;;;;;;;;;;5010989;28;19925;-42
2022/03/12 01:57:16;;;;;;;;;;;;;;;;;;5011355;28;19918;-44
2022/03/12 01:59:41;;;;;;;;;;;;;;;;;;5012168;28;19913;-45
2022/03/12 02:02:12;;;;;;;;;;;;;;;;;;5012050;28;19917;-43
2022/03/12 02:04:37;;;;;;;;;;;;;;;;;;5007844;28;20040;-45
2022/03/12 02:07:03;;;;;;;;;;;;;;;;;;5010431;28;20020;-41
2022/03/12 02:09:28;;;;;;;;;;;;;;;;;;5012760;28;20903;-45
2022/03/12 02:11:53;;;;;;;;;;;;;;;;;;5011449;28;20016;-44
2022/03/12 02:14:18;;;;;;;;;;;;;;;;;;5011011;28;19980;-43
2022/03/12 02:16:44;;;;;;;;;;;;;;;;;;5006992;28;20407;-40
2022/03/12 02:19:09;;;;;;;;;;;;;;;;;;5012142;28;19928;-40
2022/03/12 02:21:34;;;;;;;;;;;;;;;;;;5011092;28;19922;-40
2022/03/12 02:23:59;;;;;;;;;;;;;;;;;;5010061;28;19930;-40
2022/03/12 02:26:24;;;;;;;;;;;;;;;;;;5011630;28;19979;-45
2022/03/12 02:28:49;;;;;;;;;;;;;;;;;;5009470;28;19921;-43
2022/03/12 02:31:15;;;;;;;;;;;;;;;;;;5015049;28;20057;-40
2022/03/12 02:33:40;;;;;;;;;;;;;;;;;;5010569;28;20320;-41
2022/03/12 02:36:06;;;;;;;;;;;;;;;;;;5010540;28;19929;-41
2022/03/12 02:38:32;;;;;;;;;;;;;;;;;;5007590;28;19925;-40
2022/03/12 02:41:10;;;;;;;;;;;;;;;;;;5010207;28;19921;-40
2022/03/12 02:43:37;;;;;;;;;;;;;;;;;;5010603;28;20015;-42
2022/03/12 02:46:02;;;;;;;;;;;;;;;;;;5013418;28;19923;-40
2022/03/12 02:48:27;;;;;;;;;;;;;;;;;;5012495;28;20312;-40
2022/03/12 02:50:53;;;;;;;;;;;;;;;;;;5011022;28;19917;-42
2022/03/12 02:53:18;;;;;;;;;;;;;;;;;;5014784;28;20067;-43
2022/03/12 02:55:45;;;;;;;;;;;;;;;;;;5004917;28;20025;-41
2022/03/12 02:58:10;;;;;;;;;;;;;;;;;;5011543;28;19921;-43
2022/03/12 03:00:37;;;;;;;;;;;;;;;;;;5013819;28;20429;-45
2022/03/12 03:03:02;;;;;;;;;;;;;;;;;;5009614;28;19944;-44
2022/03/12 03:05:41;;;;;;;;;;;;;;;;;;5008447;28;20349;-42
2022/03/12 03:08:06;;;;;;;;;;;;;;;;;;5005801;28;19987;-41
2022/03/12 03:10:34;;;;;;;;;;;;;;;;;;5012985;28;20380;-41
2022/03/12 03:12:59;;;;;;;;;;;;;;;;;;5009482;28;20290;-44
2022/03/12 03:15:25;;;;;;;;;;;;;;;;;;5013676;28;20456;-41
2022/03/12 03:17:50;;;;;;;;;;;;;;;;;;5010108;28;19921;-42
2022/03/12 03:20:16;;;;;;;;;;;;;;;;;;5012907;28;19921;-41
2022/03/12 03:22:41;;;;;;;;;;;;;;;;;;5013363;28;20020;-41
2022/03/12 03:25:06;;;;;;;;;;;;;;;;;;5014986;28;20551;-44
2022/03/12 03:27:31;;;;;;;;;;;;;;;;;;5013189;28;20369;-41
2022/03/12 03:29:57;;;;;;;;;;;;;;;;;;5013425;28;19920;-40
2022/03/12 03:32:22;;;;;;;;;;;;;;;;;;5014862;28;20230;-40
2022/03/12 03:34:48;;;;;;;;;;;;;;;;;;5012356;28;20455;-40
2022/03/12 03:37:13;;;;;;;;;;;;;;;;;;5012795;28;19917;-41
2022/03/12 03:39:38;;;;;;;;;;;;;;;;;;5013979;28;20092;-40
2022/03/12 03:42:03;;;;;;;;;;;;;;;;;;5014709;28;19983;-41
2022/03/12 03:44:28;;;;;;;;;;;;;;;;;;5012309;28;19921;-42
2022/03/12 03:46:53;;;;;;;;;;;;;;;;;;5011111;28;20408;-42
2022/03/12 03:49:19;;;;;;;;;;;;;;;;;;5016426;28;19924;-42
2022/03/12 03:51:45;;;;;;;;;;;;;;;;;;5015140;28;20015;-40
2022/03/12 03:54:10;;;;;;;;;;;;;;;;;;5014125;28;19976;-42
2022/03/12 03:56:35;;;;;;;;;;;;;;;;;;5016407;28;20372;-42
2022/03/12 03:59:00;;;;;;;;;;;;;;;;;;5015675;28;20395;-41
2022/03/12 04:01:26;;;;;;;;;;;;;;;;;;5033500;28;20031;-46
2022/03/12 04:03:51;;;;;;;;;;;;;;;;;;5015933;28;19913;-41
2022/03/12 04:06:16;;;;;;;;;;;;;;;;;;5016446;28;19944;-44
2022/03/12 04:08:42;;;;;;;;;;;;;;;;;;5013109;28;19948;-43
2022/03/12 04:11:07;;;;;;;;;;;;;;;;;;5011581;28;19985;-42
2022/03/12 04:13:32;;;;;;;;;;;;;;;;;;5014264;28;19932;-41
2022/03/12 04:16:00;;;;;;;;;;;;;;;;;;5015007;28;19921;-43
2022/03/12 04:18:26;;;;;;;;;;;;;;;;;;5016740;28;19948;-43
2022/03/12 04:20:51;;;;;;;;;;;;;;;;;;5011764;28;19921;-41
2022/03/12 04:23:21;;;;;;;;;;;;;;;;;;5019607;28;20875;-44
2022/03/12 04:25:46;;;;;;;;;;;;;;;;;;5012360;28;20146;-43
2022/03/12 04:28:11;;;;;;;;;;;;;;;;;;5016854;28;20481;-43
2022/03/12 04:30:38;;;;;;;;;;;;;;;;;;5005125;28;19922;-43
2022/03/12 04:33:03;;;;;;;;;;;;;;;;;;5010424;28;19928;-42
2022/03/12 04:35:28;;;;;;;;;;;;;;;;;;5008911;28;19925;-43
2022/03/12 04:37:54;;;;;;;;;;;;;;;;;;5012406;28;19928;-42
2022/03/12 04:40:20;;;;;;;;;;;;;;;;;;5010994;28;19931;-40
2022/03/12 04:42:45;;;;;;;;;;;;;;;;;;5011301;28;19921;-40
2022/03/12 04:45:10;;;;;;;;;;;;;;;;;;5010874;28;19922;-40
2022/03/12 04:47:36;;;;;;;;;;;;;;;;;;5010901;28;20012;-41
2022/03/12 04:50:02;;;;;;;;;;;;;;;;;;5011895;28;19979;-42
2022/03/12 04:52:29;;;;;;;;;;;;;;;;;;5012673;28;19933;-41
2022/03/12 04:54:55;;;;;;;;;;;;;;;;;;5011846;28;19925;-41
2022/03/12 04:57:20;;;;;;;;;;;;;;;;;;5011675;28;20408;-41
2022/03/12 04:59:45;;;;;;;;;;;;;;;;;;5014038;28;19925;-42
2022/03/12 05:02:13;;;;;;;;;;;;;;;;;;5010339;28;20341;-41
2022/03/12 05:04:38;;;;;;;;;;;;;;;;;;5011528;28;19932;-40
2022/03/12 05:07:04;;;;;;;;;;;;;;;;;;5010402;28;19921;-40
2022/03/12 05:09:29;;;;;;;;;;;;;;;;;;5009261;28;19967;-41
2022/03/12 05:11:55;;;;;;;;;;;;;;;;;;5011739;28;21431;-39
2022/03/12 05:14:20;;;;;;;;;;;;;;;;;;5016731;28;19924;-40
2022/03/12 05:16:47;;;;;;;;;;;;;;;;;;5016804;28;19918;-42
2022/03/12 05:19:15;;;;;;;;;;;;;;;;;;5011962;28;20012;-40
2022/03/12 05:21:40;;;;;;;;;;;;;;;;;;5014396;28;20000;-40
2022/03/12 05:24:05;;;;;;;;;;;;;;;;;;5013795;28;20028;-42
2022/03/12 05:26:30;;;;;;;;;;;;;;;;;;5013582;28;19921;-42
2022/03/12 05:28:56;;;;;;;;;;;;;;;;;;5014948;28;19999;-42
2022/03/12 05:31:21;;;;;;;;;;;;;;;;;;5011625;28;20263;-45
2022/03/12 05:33:46;;;;;;;;;;;;;;;;;;5017570;28;19976;-46
2022/03/12 05:36:11;;;;;;;;;;;;;;;;;;5010448;28;20830;-42
2022/03/12 05:38:37;;;;;;;;;;;;;;;;;;5015452;28;19917;-42
2022/03/12 05:41:04;;;;;;;;;;;;;;;;;;5012856;28;20369;-41
2022/03/12 05:43:35;;;;;;;;;;;;;;;;;;5012986;28;19925;-45
2022/03/12 05:46:00;;;;;;;;;;;;;;;;;;5012071;28;19955;-44
2022/03/12 05:48:27;;;;;;;;;;;;;;;;;;5012928;28;20364;-47
2022/03/12 05:50:53;;;;;;;;;;;;;;;;;;5011563;28;20007;-42
2022/03/12 05:53:19;;;;;;;;;;;;;;;;;;5017949;28;19956;-42
2022/03/12 05:55:46;;;;;;;;;;;;;;;;;;5006522;28;19964;-44
2022/03/12 05:58:12;;;;;;;;;;;;;;;;;;5010102;28;19928;-43
2022/03/12 06:00:38;;;;;;;;;;;;;;;;;;5017551;28;19917;-41
2022/03/12 06:03:03;;;;;;;;;;;;;;;;;;5012335;28;20012;-44
2022/03/12 06:05:28;;;;;;;;;;;;;;;;;;5014538;28;19917;-43
2022/03/12 06:07:53;;;;;;;;;;;;;;;;;;5010737;28;20385;-42
2022/03/12 06:10:18;;;;;;;;;;;;;;;;;;5012103;28;20054;-45
2022/03/12 06:12:46;;;;;;;;;;;;;;;;;;5014449;28;20297;-42
2022/03/12 06:15:12;;;;;;;;;;;;;;;;;;5013042;28;19921;-41
2022/03/12 06:17:38;;;;;;;;;;;;;;;;;;5012470;28;20386;-41
2022/03/12 06:20:03;;;;;;;;;;;;;;;;;;5015403;28;20020;-41
2022/03/12 06:22:28;;;;;;;;;;;;;;;;;;5010032;28;20360;-45
2022/03/12 06:24:53;;;;;;;;;;;;;;;;;;5015330;28;19925;-44
2022/03/12 06:27:21;;;;;;;;;;;;;;;;;;5022307;28;20011;-43
2022/03/12 06:29:46;;;;;;;;;;;;;;;;;;5010849;28;19976;-42
2022/03/12 06:32:12;;;;;;;;;;;;;;;;;;5014251;28;20371;-43
2022/03/12 06:34:37;;;;;;;;;;;;;;;;;;5011936;28;19921;-44
2022/03/12 06:37:03;;;;;;;;;;;;;;;;;;5011046;28;19929;-42
2022/03/12 06:39:29;;;;;;;;;;;;;;;;;;5015076;28;20304;-45
2022/03/12 06:41:55;;;;;;;;;;;;;;;;;;5013160;28;19917;-43
2022/03/12 06:44:21;;;;;;;;;;;;;;;;;;5012958;28;19998;-42
2022/03/12 06:46:50;;;;;;;;;;;;;;;;;;5013940;28;20404;-44
2022/03/12 06:49:15;;;;;;;;;;;;;;;;;;5012944;28;19984;-42
2022/03/12 06:51:42;;;;;;;;;;;;;;;;;;5019765;28;19939;-41
2022/03/12 06:54:07;;;;;;;;;;;;;;;;;;5017610;28;20024;-42
2022/03/12 06:56:34;;;;;;;;;;;;;;;;;;5013175;28;20435;-42
2022/03/12 06:58:59;;;;;;;;;;;;;;;;;;5016286;28;19920;-43
2022/03/12 07:01:24;;;;;;;;;;;;;;;;;;5020839;28;19927;-43
2022/03/12 07:03:49;;;;;;;;;;;;;;;;;;5014870;28;19957;-43
2022/03/12 07:06:15;;;;;;;;;;;;;;;;;;5011512;28;19929;-43
2022/03/12 07:08:40;;;;;;;;;;;;;;;;;;5016002;28;19932;-41
2022/03/12 07:11:05;;;;;;;;;;;;;;;;;;5016723;28;19924;-40
2022/03/12 07:13:31;;;;;;;;;;;;;;;;;;5019012;28;19964;-41
2022/03/12 07:15:56;;;;;;;;;;;;;;;;;;5015459;28;20013;-42
2022/03/12 07:18:21;;;;;;;;;;;;;;;;;;5017415;28;19921;-43
2022/03/12 07:20:47;;;;;;;;;;;;;;;;;;5019670;28;20000;-44
2022/03/12 07:23:12;;;;;;;;;;;;;;;;;;5016361;28;19932;-41
2022/03/12 07:25:37;;;;;;;;;;;;;;;;;;5017175;28;19917;-45
2022/03/12 07:28:03;;;;;;;;;;;;;;;;;;5015561;28;19928;-41
2022/03/12 07:30:30;;;;;;;;;;;;;;;;;;5016787;28;19926;-43
2022/03/12 07:32:55;;;;;;;;;;;;;;;;;;5014159;28;20012;-42
2022/03/12 07:35:21;;;;;;;;;;;;;;;;;;5016471;28;19996;-46
2022/03/12 07:37:46;;;;;;;;;;;;;;;;;;5015640;28;19921;-43
2022/03/12 07:40:12;;;;;;;;;;;;;;;;;;5016453;28;20000;-48
2022/03/12 07:42:37;;;;;;;;;;;;;;;;;;5018855;28;19944;-45
2022/03/12 07:45:02;;;;;;;;;;;;;;;;;;5013413;28;20031;-44
2022/03/12 07:47:27;;;;;;;;;;;;;;;;;;5016622;28;19980;-45
2022/03/12 07:49:53;;;;;;;;;;;;;;;;;;5012510;28;20398;-45
2022/03/12 07:52:18;;;;;;;;;;;;;;;;;;5015446;28;19961;-43
2022/03/12 07:54:45;;;;;;;;;;;;;;;;;;5019495;28;19925;-47
2022/03/12 07:57:10;;;;;;;;;;;;;;;;;;5012055;28;19921;-42
2022/03/12 07:59:36;;;;;;;;;;;;;;;;;;5016662;28;20285;-41
2022/03/12 08:02:02;;;;;;;;;;;;;;;;;;5029597;28;20380;-43
2022/03/12 08:04:27;;;;;;;;;;;;;;;;;;5017357;28;19917;-42
2022/03/12 08:06:52;;;;;;;;;;;;;;;;;;5015076;28;20028;-42
2022/03/12 08:09:17;;;;;;;;;;;;;;;;;;5015306;28;20464;-42
2022/03/12 08:11:43;;;;;;;;;;;;;;;;;;5012949;28;19962;-44
2022/03/12 08:14:08;;;;;;;;;;;;;;;;;;5011350;28;20308;-45
2022/03/12 08:16:34;;;;;;;;;;;;;;;;;;5011555;28;19921;-46
2022/03/12 08:18:59;;;;;;;;;;;;;;;;;;5004639;28;19917;-41
2022/03/12 08:21:24;;;;;;;;;;;;;;;;;;5010152;28;19921;-42
2022/03/12 08:23:49;;;;;;;;;;;;;;;;;;5016810;28;20036;-43
2022/03/12 08:26:15;;;;;;;;;;;;;;;;;;5014990;28;19921;-44
2022/03/12 08:28:40;;;;;;;;;;;;;;;;;;5012035;28;20400;-43
2022/03/12 08:31:05;;;;;;;;;;;;;;;;;;5011713;28;19917;-45
2022/03/12 08:33:30;;;;;;;;;;;;;;;;;;5010346;28;19921;-44
2022/03/12 08:35:58;;;;;;;;;;;;;;;;;;5011993;28;20570;-41
2022/03/12 08:38:23;;;;;;;;;;;;;;;;;;5014044;28;19991;-41
2022/03/12 08:40:49;;;;;;;;;;;;;;;;;;5016646;28;19918;-41
2022/03/12 08:43:14;;;;;;;;;;;;;;;;;;5015176;28;20693;-41
2022/03/12 08:45:39;;;;;;;;;;;;;;;;;;5015159;28;19921;-44
2022/03/12 08:48:05;;;;;;;;;;;;;;;;;;5013590;28;19918;-41
2022/03/12 08:50:30;;;;;;;;;;;;;;;;;;5012768;28;19928;-41
2022/03/12 08:52:55;;;;;;;;;;;;;;;;;;5016066;28;20673;-42
2022/03/12 08:55:20;;;;;;;;;;;;;;;;;;5013829;28;19968;-43
2022/03/12 08:57:46;;;;;;;;;;;;;;;;;;5012861;28;19921;-44
2022/03/12 09:00:12;;;;;;;;;;;;;;;;;;5012790;28;19979;-45
2022/03/12 09:02:37;;;;;;;;;;;;;;;;;;5015276;28;19925;-43
2022/03/12 09:05:04;;;;;;;;;;;;;;;;;;5016009;28;20451;-49
2022/03/12 09:07:29;;;;;;;;;;;;;;;;;;5012103;28;19921;-47
2022/03/12 09:09:55;;;;;;;;;;;;;;;;;;5011383;28;19917;-50
2022/03/12 09:12:20;;;;;;;;;;;;;;;;;;5010656;28;19921;-47
2022/03/12 09:14:46;;;;;;;;;;;;;;;;;;5013673;28;20269;-50
2022/03/12 09:17:11;;;;;;;;;;;;;;;;;;5013922;28;19925;-48
2022/03/12 09:19:36;;;;;;;;;;;;;;;;;;5014708;28;20031;-47
2022/03/12 09:22:02;;;;;;;;;;;;;;;;;;5010751;28;20385;-52
2022/03/12 09:24:27;;;;;;;;;;;;;;;;;;5017552;28;20321;-54
2022/03/12 09:26:53;;;;;;;;;;;;;;;;;;5012449;28;19918;-56
2022/03/12 09:29:18;;;;;;;;;;;;;;;;;;5015344;28;20355;-57
2022/03/12 09:31:43;;;;;;;;;;;;;;;;;;5009601;28;19922;-57
2022/03/12 09:34:08;;;;;;;;;;;;;;;;;;5016975;28;20414;-57
2022/03/12 09:36:35;;;;;;;;;;;;;;;;;;5009012;28;19925;-57
2022/03/12 09:39:01;;;;;;;;;;;;;;;;;;5011223;28;20016;-57
2022/03/12 09:41:27;;;;;;;;;;;;;;;;;;5011627;28;19971;-57
2022/03/12 09:43:52;;;;;;;;;;;;;;;;;;5015095;28;19953;-57
2022/03/12 09:46:17;;;;;;;;;;;;;;;;;;5011569;28;19925;-57
2022/03/12 09:48:42;;;;;;;;;;;;;;;;;;5011608;28;20336;-57
2022/03/12 09:51:07;;;;;;;;;;;;;;;;;;5011018;28;19928;-57
2022/03/12 09:53:34;;;;;;;;;;;;;;;;;;5013779;28;19925;-57
2022/03/12 09:55:59;;;;;;;;;;;;;;;;;;5012713;28;19922;-58
2022/03/12 09:58:24;;;;;;;;;;;;;;;;;;5016111;28;19952;-58
2022/03/12 10:00:49;;;;;;;;;;;;;;;;;;5010582;28;19944;-57
2022/03/12 10:03:15;;;;;;;;;;;;;;;;;;5018269;28;19970;-56
2022/03/12 10:05:41;;;;;;;;;;;;;;;;;;5011428;28;20356;-57
2022/03/12 10:08:06;;;;;;;;;;;;;;;;;;5014684;28;19933;-57
2022/03/12 10:10:32;;;;;;;;;;;;;;;;;;5015574;28;19929;-57
2022/03/12 10:12:57;;;;;;;;;;;;;;;;;;5015665;28;20479;-57
2022/03/12 10:15:22;;;;;;;;;;;;;;;;;;5016746;28;19999;-57
2022/03/12 10:17:47;;;;;;;;;;;;;;;;;;5012645;28;19928;-57
2022/03/12 10:20:13;;;;;;;;;;;;;;;;;;5017163;28;20422;-57
2022/03/12 10:22:38;;;;;;;;;;;;;;;;;;5020717;28;20403;-57
2022/03/12 10:25:03;;;;;;;;;;;;;;;;;;5019571;28;20629;-57
2022/03/12 10:27:29;;;;;;;;;;;;;;;;;;5014264;28;19928;-57
2022/03/12 10:29:54;;;;;;;;;;;;;;;;;;5018583;28;19928;-57
2022/03/12 10:32:20;;;;;;;;;;;;;;;;;;5020719;28;20408;-57
2022/03/12 10:34:47;;;;;;;;;;;;;;;;;;5018077;28;19925;-57
2022/03/12 10:37:12;;;;;;;;;;;;;;;;;;5013593;28;20079;-57
2022/03/12 10:39:37;;;;;;;;;;;;;;;;;;5015579;28;19987;-57
2022/03/12 10:42:04;;;;;;;;;;;;;;;;;;5018156;28;19921;-58
2022/03/12 10:44:29;;;;;;;;;;;;;;;;;;5020120;28;19941;-57
2022/03/12 10:46:54;;;;;;;;;;;;;;;;;;5020463;28;19913;-59
2022/03/12 10:49:23;;;;;;;;;;;;;;;;;;5022400;28;19920;-58
2022/03/12 10:51:48;;;;;;;;;;;;;;;;;;5021137;28;19930;-57
2022/03/12 10:54:15;;;;;;;;;;;;;;;;;;5019501;28;19925;-58
2022/03/12 10:56:42;;;;;;;;;;;;;;;;;;5018665;28;20001;-58
2022/03/12 10:59:07;;;;;;;;;;;;;;;;;;5017405;28;19928;-57
2022/03/12 11:01:32;;;;;;;;;;;;;;;;;;5014950;28;19921;-58
2022/03/12 11:03:57;;;;;;;;;;;;;;;;;;5018884;28;20342;-58
2022/03/12 11:06:23;;;;;;;;;;;;;;;;;;5017660;28;20000;-59
2022/03/12 11:08:51;;;;;;;;;;;;;;;;;;5016944;28;19929;-57
2022/03/12 11:11:16;;;;;;;;;;;;;;;;;;5015820;28;20041;-57
2022/03/12 11:13:43;;;;;;;;;;;;;;;;;;5015783;28;20071;-57
2022/03/12 11:16:09;;;;;;;;;;;;;;;;;;5016034;28;20394;-57
2022/03/12 11:18:34;;;;;;;;;;;;;;;;;;5016896;28;20511;-57
2022/03/12 11:21:00;;;;;;;;;;;;;;;;;;5016487;28;20028;-58
2022/03/12 11:23:27;;;;;;;;;;;;;;;;;;5018463;28;20280;-57
2022/03/12 11:25:57;;;;;;;;;;;;;;;;;;5014891;28;20367;-57
2022/03/12 11:28:23;;;;;;;;;;;;;;;;;;5015615;28;19922;-57
2022/03/12 11:30:48;;;;;;;;;;;;;;;;;;5011422;28;19928;-57
2022/03/12 11:33:14;;;;;;;;;;;;;;;;;;5009999;28;20459;-57
2022/03/12 11:35:39;;;;;;;;;;;;;;;;;;5013310;28;19925;-57
2022/03/12 11:38:04;;;;;;;;;;;;;;;;;;5012850;28;19928;-57
2022/03/12 11:40:29;;;;;;;;;;;;;;;;;;5011191;28;20372;-57
2022/03/12 11:42:56;;;;;;;;;;;;;;;;;;5012018;28;19921;-55
2022/03/12 11:45:21;;;;;;;;;;;;;;;;;;5009938;28;19999;-57
2022/03/12 11:47:46;;;;;;;;;;;;;;;;;;5013769;28;20028;-57
2022/03/12 11:50:13;;;;;;;;;;;;;;;;;;5012031;28;20392;-57
2022/03/12 11:52:38;;;;;;;;;;;;;;;;;;5016866;28;19921;-57
2022/03/12 11:55:03;;;;;;;;;;;;;;;;;;5013199;28;19925;-57
2022/03/12 11:57:30;;;;;;;;;;;;;;;;;;5012339;28;19921;-57
2022/03/12 11:59:58;;;;;;;;;;;;;;;;;;5014512;28;19932;-57
2022/03/12 12:02:23;;;;;;;;;;;;;;;;;;5014994;28;19921;-57
2022/03/12 12:04:51;;;;;;;;;;;;;;;;;;5013824;28;19928;-57
2022/03/12 12:07:16;;;;;;;;;;;;;;;;;;5012072;28;19921;-57
2022/03/12 12:09:41;;;;;;;;;;;;;;;;;;5015737;28;19920;-57
2022/03/12 12:12:12;;;;;;;;;;;;;;;;;;5014912;28;20411;-57
2022/03/12 12:14:37;;;;;;;;;;;;;;;;;;5014516;28;20035;-56
2022/03/12 12:17:02;;;;;;;;;;;;;;;;;;5017833;28;20032;-51
2022/03/12 12:19:28;;;;;;;;;;;;;;;;;;5011187;28;19921;-55
2022/03/12 12:21:53;;;;;;;;;;;;;;;;;;5016224;28;20285;-56
2022/03/12 12:24:18;;;;;;;;;;;;;;;;;;5018837;28;20178;-56
2022/03/12 12:26:43;;;;;;;;;;;;;;;;;;5015903;28;20613;-55
2022/03/12 12:29:08;;;;;;;;;;;;;;;;;;5016486;28;20016;-55
2022/03/12 12:31:34;;;;;;;;;;;;;;;;;;5013858;28;19978;-57
2022/03/12 12:34:00;;;;;;;;;;;;;;;;;;5015794;28;20420;-55
2022/03/12 12:36:25;;;;;;;;;;;;;;;;;;5017514;28;19921;-53
2022/03/12 12:38:50;;;;;;;;;;;;;;;;;;5014532;28;20322;-49
2022/03/12 12:41:16;;;;;;;;;;;;;;;;;;5009824;28;19917;-58
2022/03/12 12:43:41;;;;;;;;;;;;;;;;;;5012488;28;19913;-56
2022/03/12 12:46:08;;;;;;;;;;;;;;;;;;5011198;28;19921;-57
2022/03/12 12:48:33;;;;;;;;;;;;;;;;;;5016693;28;19969;-57
2022/03/12 12:50:58;;;;;;;;;;;;;;;;;;5012833;28;19971;-56
2022/03/12 12:53:24;;;;;;;;;;;;;;;;;;5014727;28;19922;-54
2022/03/12 12:55:49;;;;;;;;;;;;;;;;;;5017290;28;19956;-56
2022/03/12 12:58:14;;;;;;;;;;;;;;;;;;5014950;28;19929;-57
2022/03/12 13:00:39;;;;;;;;;;;;;;;;;;5016347;28;19925;-57
2022/03/12 13:03:04;;;;;;;;;;;;;;;;;;5012838;28;20380;-57
2022/03/12 13:05:30;;;;;;;;;;;;;;;;;;5015154;28;20427;-57
2022/03/12 13:07:55;;;;;;;;;;;;;;;;;;5014366;28;20001;-57
2022/03/12 13:10:20;;;;;;;;;;;;;;;;;;5013817;28;20296;-57
2022/03/12 13:12:46;;;;;;;;;;;;;;;;;;5016479;28;19932;-57
2022/03/12 13:15:11;;;;;;;;;;;;;;;;;;5012347;28;20353;-57
2022/03/12 13:17:37;;;;;;;;;;;;;;;;;;5013953;28;20436;-56
2022/03/12 13:20:02;;;;;;;;;;;;;;;;;;5016730;28;19925;-56
2022/03/12 13:22:27;;;;;;;;;;;;;;;;;;5014302;28;19922;-57
2022/03/12 13:24:52;;;;;;;;;;;;;;;;;;5029937;28;20337;-56
2022/03/12 13:27:17;;;;;;;;;;;;;;;;;;5011603;28;20038;-55
2022/03/12 13:29:42;;;;;;;;;;;;;;;;;;5015339;28;19918;-56
2022/03/12 13:32:08;;;;;;;;;;;;;;;;;;5009423;28;19941;-56
2022/03/12 13:34:33;;;;;;;;;;;;;;;;;;5015239;28;19933;-54
2022/03/12 13:36:59;;;;;;;;;;;;;;;;;;5015875;28;20423;-54
2022/03/12 13:39:25;;;;;;;;;;;;;;;;;;5013890;28;19940;-56
2022/03/12 13:41:50;;;;;;;;;;;;;;;;;;5011194;28;19924;-57
2022/03/12 13:44:15;;;;;;;;;;;;;;;;;;5017288;28;19932;-55
2022/03/12 13:46:40;;;;;;;;;;;;;;;;;;5014079;28;19923;-56
2022/03/12 13:49:05;;;;;;;;;;;;;;;;;;5011144;28;19925;-56
2022/03/12 13:51:30;;;;;;;;;;;;;;;;;;5011741;28;20473;-54
2022/03/12 13:53:56;;;;;;;;;;;;;;;;;;5011518;28;19964;-60
2022/03/12 13:56:24;;;;;;;;;;;;;;;;;;5015224;28;20673;-61
2022/03/12 13:58:49;;;;;;;;;;;;;;;;;;5012443;28;20553;-60
2022/03/12 14:01:15;;;;;;;;;;;;;;;;;;5011006;28;20016;-60
2022/03/12 14:03:40;;;;;;;;;;;;;;;;;;5013018;28;19923;-54
2022/03/12 14:06:05;;;;;;;;;;;;;;;;;;5013241;28;20464;-44
2022/03/12 14:08:31;;;;;;;;;;;;;;;;;;5012118;28;20017;-45
2022/03/12 14:10:57;;;;;;;;;;;;;;;;;;5013091;28;20023;-45
2022/03/12 14:13:22;;;;;;;;;;;;;;;;;;5015223;28;20008;-48
2022/03/12 14:15:47;;;;;;;;;;;;;;;;;;5012270;28;20258;-49
2022/03/12 14:18:12;;;;;;;;;;;;;;;;;;5011762;28;19927;-45
2022/03/12 14:20:37;;;;;;;;;;;;;;;;;;5016057;28;20455;-47
2022/03/12 14:23:03;;;;;;;;;;;;;;;;;;5017246;28;19921;-49
2022/03/12 14:25:28;;;;;;;;;;;;;;;;;;5016056;28;19914;-46
2022/03/12 14:27:53;;;;;;;;;;;;;;;;;;5014142;28;19920;-43
2022/03/12 14:30:19;;;;;;;;;;;;;;;;;;5018118;28;20553;-46
2022/03/12 14:32:45;;;;;;;;;;;;;;;;;;5013695;28;19996;-46
2022/03/12 14:35:10;;;;;;;;;;;;;;;;;;5016517;28;20023;-46
2022/03/12 14:37:35;;;;;;;;;;;;;;;;;;5010252;28;20397;-47
2022/03/12 14:40:03;;;;;;;;;;;;;;;;;;5010765;28;19921;-47
2022/03/12 14:42:29;;;;;;;;;;;;;;;;;;5012086;28;19925;-45
2022/03/12 14:44:54;;;;;;;;;;;;;;;;;;5009473;28;19922;-46
2022/03/12 14:47:20;;;;;;;;;;;;;;;;;;5009828;28;19921;-52
2022/03/12 14:49:46;;;;;;;;;;;;;;;;;;5009294;28;20004;-48
2022/03/12 14:52:11;;;;;;;;;;;;;;;;;;5015597;28;19943;-49
2022/03/12 14:54:36;;;;;;;;;;;;;;;;;;5012604;28;20534;-44
2022/03/12 14:57:02;;;;;;;;;;;;;;;;;;5014925;28;19921;-45
2022/03/12 14:59:28;;;;;;;;;;;;;;;;;;5016356;28;20166;-46
2022/03/12 15:01:54;;;;;;;;;;;;;;;;;;5016832;28;19952;-48
2022/03/12 15:04:19;;;;;;;;;;;;;;;;;;5015862;28;19914;-44
2022/03/12 15:06:45;;;;;;;;;;;;;;;;;;5012537;28;20390;-43
2022/03/12 15:09:10;;;;;;;;;;;;;;;;;;5016184;28;19928;-44
2022/03/12 15:11:35;;;;;;;;;;;;;;;;;;5014237;28;19921;-44
2022/03/12 15:14:01;;;;;;;;;;;;;;;;;;5013619;28;19925;-42
2022/03/12 15:16:27;;;;;;;;;;;;;;;;;;5016481;28;19939;-41
2022/03/12 15:18:52;;;;;;;;;;;;;;;;;;5017421;28;19948;-46
2022/03/12 15:21:17;;;;;;;;;;;;;;;;;;5014998;28;19918;-48
2022/03/12 15:23:42;;;;;;;;;;;;;;;;;;5014322;28;19975;-46
2022/03/12 15:26:10;;;;;;;;;;;;;;;;;;5010504;28;19999;-46
2022/03/12 15:28:36;;;;;;;;;;;;;;;;;;5014963;28;20016;-45
2022/03/12 15:31:02;;;;;;;;;;;;;;;;;;5013482;28;20430;-47
2022/03/12 15:33:27;;;;;;;;;;;;;;;;;;5017570;28;19918;-44
2022/03/12 15:35:52;;;;;;;;;;;;;;;;;;5011319;28;19932;-46
2022/03/12 15:38:19;;;;;;;;;;;;;;;;;;5014120;28;20401;-44
2022/03/12 15:40:44;;;;;;;;;;;;;;;;;;5014393;28;19941;-44
2022/03/12 15:43:10;;;;;;;;;;;;;;;;;;5017741;28;19963;-45
2022/03/12 15:45:35;;;;;;;;;;;;;;;;;;5013507;28;19925;-44
2022/03/12 15:48:00;;;;;;;;;;;;;;;;;;5017452;28;19925;-44
2022/03/12 15:50:25;;;;;;;;;;;;;;;;;;5012135;28;20416;-43
2022/03/12 15:52:51;;;;;;;;;;;;;;;;;;5012248;28;19917;-48
2022/03/12 15:55:16;;;;;;;;;;;;;;;;;;5012020;28;19925;-44
2022/03/12 15:57:41;;;;;;;;;;;;;;;;;;5013497;28;20455;-42
2022/03/12 16:00:06;;;;;;;;;;;;;;;;;;5015533;28;19921;-45
2022/03/12 16:02:31;;;;;;;;;;;;;;;;;;5019547;28;19968;-45
2022/03/12 16:04:57;;;;;;;;;;;;;;;;;;5016752;28;19917;-45
2022/03/12 16:07:22;;;;;;;;;;;;;;;;;;5016823;28;20343;-46
2022/03/12 16:09:47;;;;;;;;;;;;;;;;;;5011441;28;19925;-43
2022/03/12 16:12:12;;;;;;;;;;;;;;;;;;5022074;28;20372;-46
2022/03/12 16:14:41;;;;;;;;;;;;;;;;;;5012698;28;19952;-44
2022/03/12 16:17:07;;;;;;;;;;;;;;;;;;5015806;28;20004;-44
2022/03/12 16:19:32;;;;;;;;;;;;;;;;;;5015144;28;19924;-43
2022/03/12 16:21:57;;;;;;;;;;;;;;;;;;5017714;28;19922;-48
2022/03/12 16:24:23;;;;;;;;;;;;;;;;;;5013142;28;20004;-47
2022/03/12 16:26:48;;;;;;;;;;;;;;;;;;5018006;28;19916;-44
2022/03/12 16:29:15;;;;;;;;;;;;;;;;;;5017938;28;19932;-45
2022/03/12 16:31:40;;;;;;;;;;;;;;;;;;5014904;28;19939;-45
2022/03/12 16:34:07;;;;;;;;;;;;;;;;;;5012490;28;20302;-46